createdAt,value
2022-12-07T00:04:45.849Z,101813.44
2022-12-07T00:10:09.477Z,101816.38
2022-12-07T00:15:32.616Z,101812.72
2022-12-07T00:21:01.420Z,101798.78
2022-12-07T00:26:26.017Z,101796.00
2022-12-07T00:31:49.393Z,101795.88
2022-12-07T00:37:14.071Z,101804.56
2022-12-07T00:42:37.291Z,101807.63
2022-12-07T00:48:00.354Z,101797.00
2022-12-07T00:53:24.959Z,101801.22
2022-12-07T00:58:52.424Z,101800.16
2022-12-07T01:04:15.596Z,101784.84
2022-12-07T01:09:40.134Z,101797.19
2022-12-07T01:15:03.240Z,101789.34
2022-12-07T01:20:26.329Z,101792.72
2022-12-07T01:25:57.511Z,101795.09
2022-12-07T01:31:22.547Z,101793.03
2022-12-07T01:36:45.693Z,101781.75
2022-12-07T01:42:11.540Z,101786.88
2022-12-07T01:47:34.726Z,101786.56
2022-12-07T01:52:58.790Z,101791.09
2022-12-07T01:58:23.520Z,101791.06
2022-12-07T02:03:47.309Z,101792.31
2022-12-07T02:09:10.491Z,101790.50
2022-12-07T02:14:35.105Z,101776.44
2022-12-07T02:20:24.265Z,101767.63
2022-12-07T02:26:05.369Z,101767.50
2022-12-07T02:31:31.061Z,101757.09
2022-12-07T02:36:57.756Z,101762.00
2022-12-07T02:42:26.229Z,101758.38
2022-12-07T02:47:53.944Z,101771.34
2022-12-07T02:53:37.254Z,101780.84
2022-12-07T02:59:04.888Z,101770.25
2022-12-07T03:04:38.586Z,101769.00
2022-12-07T03:10:05.392Z,101767.09
2022-12-07T03:15:32.921Z,101759.22
2022-12-07T03:21:01.202Z,101757.22
2022-12-07T03:26:27.916Z,101756.72
2022-12-07T03:31:56.634Z,101747.84
2022-12-07T03:37:25.110Z,101755.59
2022-12-07T03:42:48.655Z,101748.56
2022-12-07T03:48:21.937Z,101743.97
2022-12-07T03:53:48.963Z,101726.06
2022-12-07T03:59:13.167Z,101740.94
2022-12-07T04:04:36.732Z,101735.75
2022-12-07T04:10:01.473Z,101743.47
2022-12-07T04:15:24.969Z,101736.47
2022-12-07T04:20:48.358Z,101734.56
2022-12-07T04:26:13.093Z,101730.88
2022-12-07T04:31:36.708Z,101746.13
2022-12-07T04:36:59.863Z,101746.00
2022-12-07T04:42:24.318Z,101686.44
2022-12-07T04:47:47.416Z,101728.06
2022-12-07T04:53:10.477Z,101735.75
2022-12-07T04:58:34.876Z,101723.50
2022-12-07T05:03:58.013Z,101731.38
2022-12-07T05:09:21.309Z,101721.00
2022-12-07T05:14:45.756Z,101711.72
2022-12-07T05:20:10.009Z,101730.78
2022-12-07T05:25:33.204Z,101726.69
2022-12-07T05:30:59.972Z,101712.91
2022-12-07T05:36:23.593Z,101706.53
2022-12-07T05:42:04.327Z,101712.22
2022-12-07T05:47:28.765Z,101711.16
2022-12-07T05:52:51.913Z,101713.16
2022-12-07T05:58:43.923Z,101720.88
2022-12-07T06:04:08.323Z,101716.50
2022-12-07T06:09:31.484Z,101702.88
2022-12-07T06:14:54.662Z,101692.56
2022-12-07T06:20:19.443Z,101669.94
2022-12-07T06:25:47.408Z,101684.13
2022-12-07T06:31:13.833Z,101694.44
2022-12-07T06:36:38.903Z,101706.94
2022-12-07T06:42:02.055Z,101710.19
2022-12-07T06:47:40.083Z,101710.84
2022-12-07T06:53:05.378Z,101709.06
2022-12-07T06:58:28.596Z,101713.94
2022-12-07T07:03:51.664Z,101745.03
2022-12-07T07:09:16.260Z,101732.94
2022-12-07T07:14:39.434Z,101732.00
2022-12-07T07:20:02.861Z,101718.94
2022-12-07T07:25:27.422Z,101730.16
2022-12-07T07:30:50.833Z,101738.00
2022-12-07T07:36:13.988Z,101736.09
2022-12-07T07:41:38.504Z,101734.63
2022-12-07T07:47:01.662Z,101727.81
2022-12-07T07:52:24.824Z,101724.56
2022-12-07T07:57:54.436Z,101697.63
2022-12-07T08:03:18.290Z,101725.25
2022-12-07T08:08:41.418Z,101732.19
2022-12-07T08:14:05.906Z,101742.66
2022-12-07T08:19:29.091Z,101751.47
2022-12-07T08:24:52.199Z,101754.25
2022-12-07T08:30:16.996Z,101750.72
2022-12-07T08:35:40.505Z,101750.03
2022-12-07T08:41:03.870Z,101734.13
2022-12-07T08:46:31.113Z,101725.72
2022-12-07T08:51:54.343Z,101724.69
2022-12-07T08:57:17.452Z,101725.53
2022-12-07T09:02:42.334Z,101718.56
2022-12-07T09:08:05.982Z,101716.91
2022-12-07T09:13:29.132Z,101729.84
2022-12-07T09:18:53.657Z,101733.19
2022-12-07T09:24:16.764Z,101723.59
2022-12-07T09:29:39.906Z,101727.22
2022-12-07T09:35:04.853Z,101736.25
2022-12-07T09:40:29.749Z,101734.91
2022-12-07T09:45:54.332Z,101721.13
2022-12-07T09:51:24.132Z,101729.00
2022-12-07T09:56:48.435Z,101733.44
2022-12-07T10:02:26.413Z,101724.06
2022-12-07T10:07:51.032Z,101715.59
2022-12-07T10:13:15.503Z,101711.56
2022-12-07T10:18:39.811Z,101703.97
2022-12-07T10:24:06.091Z,101697.94
2022-12-07T10:29:32.031Z,101689.31
2022-12-07T10:35:20.702Z,101660.00
2022-12-07T10:40:46.738Z,101679.19
2022-12-07T10:46:30.179Z,101675.78
2022-12-07T10:51:57.369Z,101667.25
2022-12-07T10:57:42.510Z,101661.31
2022-12-07T11:03:21.810Z,101661.53
2022-12-07T11:08:53.381Z,101649.75
2022-12-07T11:14:23.517Z,101629.75
2022-12-07T11:19:54.685Z,101637.44
2022-12-07T11:25:28.798Z,101635.72
2022-12-07T11:30:59.689Z,101629.69
2022-12-07T11:36:34.142Z,101621.06
2022-12-07T11:42:03.791Z,101608.06
2022-12-07T11:47:33.188Z,101615.94
2022-12-07T11:53:00.146Z,101615.97
2022-12-07T11:58:37.410Z,101616.81
2022-12-07T12:04:06.435Z,101611.53
2022-12-07T12:14:48.413Z,101592.47
2022-12-07T12:20:03.214Z,101612.94
2022-12-07T12:25:28.587Z,101603.78
2022-12-07T12:31:08.160Z,101618.84
2022-12-07T12:36:48.230Z,101604.13
2022-12-07T12:42:20.417Z,101576.69
2022-12-07T12:47:43.197Z,101578.63
2022-12-07T12:52:57.871Z,101575.19
2022-12-07T12:58:32.576Z,101573.44
2022-12-07T13:03:35.939Z,101549.22
2022-12-07T13:08:42.967Z,101544.88
2022-12-07T13:13:45.827Z,101531.88
2022-12-07T13:18:48.668Z,101518.88
2022-12-07T13:23:57.387Z,101513.72
2022-12-07T13:29:09.038Z,101517.16
2022-12-07T13:34:32.308Z,101512.78
2022-12-07T13:39:37.255Z,101507.59
2022-12-07T13:44:42.717Z,101508.44
2022-12-07T13:49:53.534Z,101498.94
2022-12-07T13:55:00.934Z,101495.44
2022-12-07T14:00:07.184Z,101498.03
2022-12-07T14:05:11.854Z,101484.13
2022-12-07T14:10:26.962Z,101490.97
2022-12-07T14:15:32.056Z,101486.72
2022-12-07T14:20:36.401Z,101490.25
2022-12-07T14:25:51.240Z,101484.19
2022-12-07T14:30:54.609Z,101477.25
2022-12-07T14:35:59.319Z,101476.44
2022-12-07T14:41:17.643Z,101477.28
2022-12-07T14:46:20.687Z,101468.66
2022-12-07T14:56:50.422Z,101487.53
2022-12-07T15:01:53.360Z,101481.47
2022-12-07T15:07:00.255Z,101477.06
2022-12-07T15:12:04.702Z,101470.09
2022-12-07T15:17:09.830Z,101469.97
2022-12-07T15:22:13.656Z,101460.41
2022-12-07T15:27:17.892Z,101453.50
2022-12-07T15:32:20.780Z,101444.06
2022-12-07T15:37:23.711Z,101437.97
2022-12-07T15:42:27.870Z,101438.72
2022-12-07T15:47:30.658Z,101432.53
2022-12-07T15:52:33.657Z,101432.53
2022-12-07T15:57:39.286Z,101429.16
2022-12-07T16:02:42.155Z,101432.34
2022-12-07T16:07:47.583Z,101421.06
2022-12-07T16:12:52.519Z,101427.97
2022-12-07T16:17:56.556Z,101408.97
2022-12-07T16:22:59.448Z,101412.41
2022-12-07T16:28:03.735Z,101424.38
2022-12-07T16:33:07.008Z,101410.28
2022-12-07T16:38:09.811Z,101410.19
2022-12-07T16:43:15.609Z,101403.97
2022-12-07T16:48:19.335Z,101399.47
2022-12-07T16:53:23.153Z,101395.19
2022-12-07T16:58:27.367Z,101391.00
2022-12-07T17:03:30.614Z,101377.31
2022-12-07T17:08:33.592Z,101375.91
2022-12-07T17:13:55.558Z,101370.81
2022-12-07T17:18:58.756Z,101370.63
2022-12-07T17:24:02.041Z,101362.78
2022-12-07T17:29:07.044Z,101361.97
2022-12-07T17:34:12.389Z,101361.16
2022-12-07T17:39:17.213Z,101357.75
2022-12-07T17:44:22.125Z,101347.53
2022-12-07T17:49:25.646Z,101349.34
2022-12-07T17:54:28.522Z,101340.81
2022-12-07T17:59:32.890Z,101335.75
2022-12-07T18:04:35.721Z,101330.56
2022-12-07T18:09:38.870Z,101321.94
2022-12-07T18:14:43.192Z,101288.19
2022-12-07T18:19:46.162Z,101344.38
2022-12-07T18:24:48.988Z,101367.84
2022-12-07T18:29:54.163Z,101367.34
2022-12-07T18:34:56.917Z,101371.41
2022-12-07T18:39:59.745Z,101362.75
2022-12-07T18:45:04.469Z,101348.78
2022-12-07T18:50:08.718Z,101323.91
2022-12-07T18:55:11.614Z,101313.75
2022-12-07T19:00:16.937Z,101312.06
2022-12-07T19:05:20.032Z,101297.50
2022-12-07T19:10:22.848Z,101298.38
2022-12-07T19:15:27.205Z,101300.06
2022-12-07T19:20:30.012Z,101299.97
2022-12-07T19:25:32.813Z,101295.69
2022-12-07T19:30:36.942Z,101282.78
2022-12-07T19:35:39.784Z,101281.03
2022-12-07T19:40:42.637Z,101268.16
2022-12-07T19:45:47.115Z,101262.06
2022-12-07T19:50:49.998Z,101263.06
2022-12-07T19:55:52.890Z,101250.88
2022-12-07T20:00:57.109Z,101235.06
2022-12-07T20:06:00.250Z,101248.84
2022-12-07T20:11:24.853Z,101238.31
2022-12-07T20:16:29.197Z,101235.00
2022-12-07T20:21:32.141Z,101228.94
2022-12-07T20:26:35.626Z,101213.44
2022-12-07T20:31:39.802Z,101220.53
2022-12-07T20:36:43.073Z,101200.56
2022-12-07T20:42:03.131Z,101207.56
2022-12-07T20:47:08.009Z,101184.06
2022-12-07T20:52:10.876Z,101196.16
2022-12-07T20:57:13.797Z,101187.72
2022-12-07T21:02:18.036Z,101185.88
2022-12-07T21:07:20.910Z,101175.53
2022-12-07T21:12:23.741Z,101169.56
2022-12-07T21:17:28.642Z,101174.69
2022-12-07T21:22:31.472Z,101173.78
2022-12-07T21:27:35.221Z,101168.66
2022-12-07T21:32:39.511Z,101154.13
2022-12-07T21:37:42.317Z,101148.28
2022-12-07T21:42:45.896Z,101131.19
2022-12-07T21:47:50.121Z,101134.78
2022-12-07T21:52:52.927Z,101127.91
2022-12-07T21:57:55.707Z,101124.59
2022-12-07T22:02:59.976Z,101134.16
2022-12-07T22:08:02.862Z,101141.72
2022-12-07T22:13:05.912Z,101111.47
2022-12-07T22:18:10.405Z,101131.25
2022-12-07T22:23:13.176Z,101113.81
2022-12-07T22:28:16.034Z,101118.00
2022-12-07T22:33:20.219Z,101111.97
2022-12-07T22:38:23.040Z,101100.75
2022-12-07T22:43:26.375Z,101103.09
2022-12-07T22:48:30.594Z,101097.88
2022-12-07T22:53:33.504Z,101086.69
2022-12-07T22:58:36.352Z,101080.72
2022-12-07T23:03:40.668Z,101070.47
2022-12-07T23:08:43.721Z,101066.13
2022-12-07T23:13:46.538Z,101063.53
2022-12-07T23:18:50.743Z,101060.06
2022-12-07T23:23:53.512Z,101055.22
2022-12-07T23:28:58.255Z,101051.28
2022-12-07T23:34:02.474Z,101046.16
2022-12-07T23:39:05.348Z,101040.47
2022-12-07T23:44:08.366Z,101031.00
2022-12-07T23:49:13.762Z,101018.06
2022-12-07T23:54:16.614Z,101011.19
2022-12-07T23:59:19.739Z,101025.06
